Time;durP1;ratioP1;P1;durP2;ratioP2;P2;SDS_P1;SDS_P2;PMS_P1;PMS_P2;Temp;Humidity;BMP_temperature;BMP_pressure;BME280_temperature;BME280_humidity;BME280_pressure;Samples;Min_cycle;Max_cycle;Signal;HPM_P1;HPM_P2
2023/01/13 00:01:23;;;;;;;21.30;11.30;;;;;;;1.75;100.00;99067.41;4452788;32;20101;-69
2023/01/13 00:03:51;;;;;;;26.77;11.07;;;;;;;1.80;100.00;99064.59;4452808;32;20568;-69
2023/01/13 00:06:21;;;;;;;17.17;9.25;;;;;;;1.77;100.00;99070.75;4452762;32;20104;-69
2023/01/13 00:08:49;;;;;;;18.25;9.35;;;;;;;1.79;100.00;99063.78;4452933;32;20157;-69
2023/01/13 00:11:17;;;;;;;22.48;9.98;;;;;;;1.81;100.00;99061.94;4453014;32;20177;-69
2023/01/13 00:13:44;;;;;;;18.55;9.77;;;;;;;1.75;100.00;99063.06;4453010;32;20097;-69
2023/01/13 00:16:17;;;;;;;21.65;10.07;;;;;;;1.71;100.00;99059.00;4452430;32;20473;-69
2023/01/13 00:18:44;;;;;;;20.35;10.27;;;;;;;1.63;100.00;99063.66;4452966;32;20105;-69
2023/01/13 00:21:20;;;;;;;22.77;10.50;;;;;;;1.57;100.00;99057.03;4452860;32;20533;-69
2023/01/13 00:23:48;;;;;;;22.02;11.27;;;;;;;1.49;100.00;99061.75;4452728;32;20109;-69
2023/01/13 00:26:20;;;;;;;20.08;11.38;;;;;;;1.50;100.00;99060.00;4452228;32;20109;-69
2023/01/13 00:28:48;;;;;;;25.40;11.25;;;;;;;1.53;100.00;99058.13;4452533;32;20164;-69
2023/01/13 00:31:18;;;;;;;18.33;10.82;;;;;;;1.55;100.00;99052.88;4452644;32;20085;-69
2023/01/13 00:33:47;;;;;;;24.37;11.50;;;;;;;1.50;100.00;99053.09;4452525;32;20109;-69
2023/01/13 00:36:15;;;;;;;24.10;10.57;;;;;;;1.42;100.00;99053.47;4452286;32;20148;-69
2023/01/13 00:38:43;;;;;;;25.10;11.55;;;;;;;1.52;100.00;99055.63;4452315;32;20149;-69
2023/01/13 00:41:13;;;;;;;22.85;10.98;;;;;;;1.52;100.00;99053.84;4452602;32;20588;-69
2023/01/13 00:43:40;;;;;;;27.80;11.88;;;;;;;1.53;100.00;99062.44;4452434;32;20127;-69
2023/01/13 00:46:09;;;;;;;30.55;12.88;;;;;;;1.37;100.00;99057.16;4437963;32;20089;-69
2023/01/13 00:48:36;;;;;;;30.45;13.70;;;;;;;1.41;100.00;99058.72;4452187;32;20139;-69
2023/01/13 00:51:10;;;;;;;25.85;13.27;;;;;;;1.38;100.00;99053.69;4452527;32;20534;-69
2023/01/13 00:53:39;;;;;;;33.55;13.40;;;;;;;1.41;100.00;99051.78;4452349;32;20089;-69
2023/01/13 00:56:13;;;;;;;27.40;13.82;;;;;;;1.49;100.00;99056.59;4452423;32;20417;-69
2023/01/13 00:58:41;;;;;;;26.93;13.37;;;;;;;1.59;100.00;99044.91;4452055;32;20115;-69
2023/01/13 01:01:22;;;;;;;27.37;13.27;;;;;;;1.69;100.00;99053.03;4452570;32;20468;-69
2023/01/13 01:03:50;;;;;;;31.45;13.93;;;;;;;1.80;100.00;99047.34;4452156;32;20077;-69
2023/01/13 01:06:21;;;;;;;26.20;12.85;;;;;;;1.81;100.00;99045.63;4451811;32;20175;-69
2023/01/13 01:08:48;;;;;;;30.88;13.70;;;;;;;1.82;100.00;99045.56;4451869;32;20383;-69
2023/01/13 01:11:18;;;;;;;30.42;13.23;;;;;;;1.84;100.00;99041.13;4452406;32;20530;-69
2023/01/13 01:13:51;;;;;;;27.98;13.40;;;;;;;1.93;100.00;99032.94;4454481;32;20093;-69
2023/01/13 01:16:20;;;;;;;33.15;12.95;;;;;;;1.97;100.00;99032.78;4454303;32;20478;-69
2023/01/13 01:18:48;;;;;;;24.25;12.55;;;;;;;1.98;100.00;99031.88;4454312;32;20156;-69
2023/01/13 01:21:16;;;;;;;26.67;13.15;;;;;;;1.93;100.00;99032.94;4454500;32;20105;-69
2023/01/13 01:23:43;;;;;;;24.48;12.65;;;;;;;1.97;100.00;99032.78;4454276;32;20463;-69
2023/01/13 01:26:20;;;;;;;22.75;12.37;;;;;;;1.97;100.00;99030.19;4453889;32;20127;-69
2023/01/13 01:28:47;;;;;;;27.17;12.37;;;;;;;1.97;100.00;99019.84;4454035;32;20157;-69
2023/01/13 01:31:24;;;;;;;30.75;13.70;;;;;;;1.95;100.00;99025.97;4454480;32;20144;-69
2023/01/13 01:33:52;;;;;;;25.25;13.18;;;;;;;1.98;100.00;99021.53;4454413;32;20154;-69
2023/01/13 01:36:21;;;;;;;25.37;12.88;;;;;;;1.98;100.00;99021.53;4453782;32;20125;-69
2023/01/13 01:38:48;;;;;;;22.73;12.23;;;;;;;1.99;100.00;99018.06;4454238;32;20247;-69
2023/01/13 01:41:21;;;;;;;24.10;11.98;;;;;;;1.97;100.00;99010.37;4454221;32;20100;-69
2023/01/13 01:44:03;;;;;;;23.70;11.18;;;;;;;1.98;100.00;99008.63;4454454;32;20141;-69
2023/01/13 01:46:40;;;;;;;26.87;12.73;;;;;;;1.97;100.00;99012.97;4453958;32;20142;-69
2023/01/13 01:49:16;;;;;;;22.55;12.50;;;;;;;2.02;100.00;99007.56;4454012;32;20081;-69
2023/01/13 01:51:55;;;;;;;22.42;10.50;;;;;;;2.05;100.00;99005.66;4454301;32;20495;-69
2023/01/13 01:55:06;;;;;;;18.52;10.35;;;;;;;2.09;100.00;99004.59;4453887;32;20229;-69
2023/01/13 01:57:58;;;;;;;22.08;10.77;;;;;;;1.96;100.00;99000.94;4384804;32;20165;-69
2023/01/13 02:00:27;;;;;;;23.10;10.63;;;;;;;2.12;100.00;98998.44;4390435;32;20176;-69
2023/01/13 02:02:56;;;;;;;23.20;10.35;;;;;;;2.24;100.00;98992.63;4390289;32;20167;-69
2023/01/13 02:05:23;;;;;;;21.90;10.80;;;;;;;2.17;100.00;98996.44;4377935;32;20111;-69
2023/01/13 02:07:52;;;;;;;19.35;9.77;;;;;;;2.20;100.00;98993.69;4390518;32;20094;-69
2023/01/13 02:10:22;;;;;;;21.05;10.43;;;;;;;2.31;100.00;98987.97;4377855;32;20609;-69
2023/01/13 02:12:49;;;;;;;25.12;10.85;;;;;;;2.36;100.00;98985.97;4390607;32;20115;-69
2023/01/13 02:15:22;;;;;;;23.55;10.57;;;;;;;2.39;100.00;98984.97;4377527;32;20113;-69
2023/01/13 02:17:55;;;;;;;18.62;10.65;;;;;;;2.41;100.00;98988.34;4378000;32;20173;-69
2023/01/13 02:20:41;;;;;;;20.77;10.75;;;;;;;2.42;100.00;98990.00;4389853;32;20106;-69
2023/01/13 02:26:33;;;;;;;19.02;9.70;;;;;;;2.39;100.00;98974.63;4379054;32;20114;-69
2023/01/13 02:32:22;;;;;;;20.70;9.60;;;;;;;2.52;100.00;98975.66;4390425;32;20312;-69
2023/01/13 02:35:15;;;;;;;21.05;10.10;;;;;;;2.52;100.00;98970.50;4420278;32;20553;-69
2023/01/13 02:37:43;;;;;;;19.85;9.60;;;;;;;2.48;100.00;98975.00;4439990;32;20180;-69
2023/01/13 02:40:27;;;;;;;18.30;8.98;;;;;;;2.47;100.00;98977.69;4453609;32;20115;-69
2023/01/13 02:46:30;;;;;;;17.33;8.63;;;;;;;2.50;100.00;98982.69;4405024;32;20130;-69
2023/01/13 02:49:00;;;;;;;21.20;9.38;;;;;;;2.58;100.00;98979.69;4392810;32;20132;-69
2023/01/13 02:51:28;;;;;;;17.90;9.20;;;;;;;2.56;100.00;98971.16;4392907;32;20094;-69
2023/01/13 02:54:00;;;;;;;20.75;10.32;;;;;;;2.61;100.00;98964.00;4405651;32;20145;-69
2023/01/13 02:56:28;;;;;;;20.35;10.00;;;;;;;2.60;100.00;98965.75;4405057;32;20136;-69
2023/01/13 02:58:56;;;;;;;17.52;10.02;;;;;;;2.60;100.00;98960.56;4392709;32;20126;-69
2023/01/13 03:01:24;;;;;;;17.75;9.93;;;;;;;2.75;100.00;98952.91;4392671;32;20530;-69
2023/01/13 03:03:51;;;;;;;19.35;9.50;;;;;;;2.77;100.00;98961.41;4404960;32;20148;-69
2023/01/13 03:06:28;;;;;;;19.95;9.63;;;;;;;2.64;100.00;98951.75;4405107;32;20139;-69
2023/01/13 03:09:19;;;;;;;23.02;11.15;;;;;;;2.69;100.00;98955.84;4405125;32;20273;-69
2023/01/13 03:11:57;;;;;;;20.33;10.52;;;;;;;2.69;100.00;98946.31;4392766;32;20558;-69
2023/01/13 03:14:33;;;;;;;22.13;10.05;;;;;;;2.67;100.00;98948.97;4392630;32;20168;-69
2023/01/13 03:17:25;;;;;;;23.48;10.73;;;;;;;2.58;100.00;98940.91;4404713;32;20164;-69
2023/01/13 03:20:05;;;;;;;20.73;10.75;;;;;;;2.64;100.00;98943.97;4392509;32;20109;-69
2023/01/13 03:22:39;;;;;;;21.33;10.88;;;;;;;2.62;100.00;98956.16;4444879;32;20096;-69
2023/01/13 03:25:16;;;;;;;18.73;9.15;;;;;;;2.73;100.00;98936.66;4439737;32;20093;-69
2023/01/13 03:27:56;;;;;;;19.98;10.52;;;;;;;2.66;100.00;98941.31;4453603;32;20756;-69
2023/01/13 03:30:39;;;;;;;21.27;10.88;;;;;;;2.65;100.00;98943.06;4439189;32;20510;-69
2023/01/13 03:33:55;;;;;;;26.08;12.25;;;;;;;2.69;100.00;98941.13;4439512;32;20157;-69
2023/01/13 03:36:25;;;;;;;23.48;11.32;;;;;;;2.62;100.00;98934.63;4361900;32;20109;-69
2023/01/13 03:39:02;;;;;;;24.10;11.73;;;;;;;2.61;100.00;98933.78;4374598;32;20118;-69
2023/01/13 03:41:35;;;;;;;26.27;11.98;;;;;;;2.70;100.00;98935.06;4374683;32;20137;-69
2023/01/13 03:44:22;;;;;;;22.50;11.38;;;;;;;2.72;100.00;98924.63;4374853;32;20120;-69
2023/01/13 03:47:02;;;;;;;23.83;11.57;;;;;;;2.80;100.00;98933.66;4374505;32;20150;-69
2023/01/13 03:49:42;;;;;;;26.80;13.35;;;;;;;2.70;100.00;98929.88;4374942;32;20098;-69
2023/01/13 03:52:14;;;;;;;20.98;11.35;;;;;;;2.74;100.00;98933.13;4374446;32;20157;-69
2023/01/13 03:54:57;;;;;;;22.15;11.65;;;;;;;2.78;100.00;98935.47;4374575;32;20161;-69
2023/01/13 03:57:28;;;;;;;22.13;11.15;;;;;;;2.76;100.00;98932.13;4374226;32;20564;-69
2023/01/13 03:59:58;;;;;;;22.77;11.70;;;;;;;2.74;100.00;98930.53;4374489;32;20506;-69
2023/01/13 04:02:46;;;;;;;18.83;11.07;;;;;;;2.74;100.00;98933.97;4374170;32;20245;-69
2023/01/13 04:05:14;;;;;;;21.45;11.02;;;;;;;2.70;100.00;98932.47;4374308;32;20914;-69
2023/01/13 04:07:47;;;;;;;26.62;11.50;;;;;;;2.69;100.00;98930.78;4361968;32;20671;-69
2023/01/13 04:10:18;;;;;;;19.87;10.90;;;;;;;2.62;100.00;98937.22;4412641;32;20825;-69
2023/01/13 04:13:03;;;;;;;21.55;11.38;;;;;;;2.66;100.00;98938.72;4426079;32;20184;-69
2023/01/13 04:15:37;;;;;;;19.08;10.27;;;;;;;2.74;100.00;98935.72;4440063;32;20542;-69
2023/01/13 04:18:20;;;;;;;21.45;12.30;;;;;;;2.75;100.00;98937.41;4438885;32;20112;-69
2023/01/13 04:20:49;;;;;;;21.27;11.05;;;;;;;2.89;100.00;98928.88;4452840;32;20435;-69
2023/01/13 04:23:17;;;;;;;26.20;11.27;;;;;;;2.89;100.00;98937.47;4423382;32;20176;-69
2023/01/13 04:25:46;;;;;;;23.58;11.30;;;;;;;2.90;100.00;98938.31;4437189;32;20125;-69
2023/01/13 04:28:14;;;;;;;18.37;11.05;;;;;;;2.78;100.00;98938.06;4436726;32;20109;-69
2023/01/13 04:30:42;;;;;;;22.02;12.18;;;;;;;2.83;100.00;98943.81;4437553;32;20156;-69
2023/01/13 04:33:10;;;;;;;23.05;12.35;;;;;;;2.82;100.00;98936.97;4435703;32;20152;-69
2023/01/13 04:35:37;;;;;;;28.10;13.07;;;;;;;2.76;100.00;98939.06;4437026;32;20115;-69
2023/01/13 04:38:08;;;;;;;28.33;13.25;;;;;;;2.80;100.00;98944.00;4437256;32;20093;-69
2023/01/13 04:40:39;;;;;;;28.63;12.13;;;;;;;2.70;100.00;98949.75;4437054;32;20120;-69
2023/01/13 04:43:06;;;;;;;24.52;11.85;;;;;;;2.64;100.00;98943.97;4437166;32;20090;-69
2023/01/13 04:45:33;;;;;;;21.65;11.40;;;;;;;2.61;100.00;98944.16;4436799;32;20521;-69
2023/01/13 04:48:01;;;;;;;30.08;13.93;;;;;;;2.56;100.00;98942.72;4438620;32;20139;-69
2023/01/13 04:50:28;;;;;;;24.40;11.20;;;;;;;2.56;100.00;98940.97;4438983;32;20089;-69
2023/01/13 04:52:55;;;;;;;25.52;11.30;;;;;;;2.58;100.00;98943.47;4438894;32;20424;-69
2023/01/13 04:55:23;;;;;;;21.70;10.77;;;;;;;2.53;100.00;98951.50;4438751;32;20098;-69
2023/01/13 04:57:51;;;;;;;21.15;11.82;;;;;;;2.49;100.00;98944.81;4439129;32;20093;-69
2023/01/13 05:00:20;;;;;;;21.25;11.07;;;;;;;2.45;100.00;98943.28;4438867;32;20086;-69
2023/01/13 05:02:49;;;;;;;19.87;10.38;;;;;;;2.35;100.00;98939.50;4438685;32;20120;-69
2023/01/13 05:05:17;;;;;;;18.05;9.73;;;;;;;2.42;100.00;98935.69;4438852;32;20135;-69
2023/01/13 05:07:45;;;;;;;22.15;10.95;;;;;;;2.49;100.00;98945.62;4439092;32;20113;-69
2023/01/13 05:10:12;;;;;;;20.50;10.35;;;;;;;2.53;100.00;98948.06;4440375;32;20477;-69
2023/01/13 05:18:12;;;;;;;20.67;10.35;;;;;;;2.43;100.00;98958.06;4454620;32;20130;-69
2023/01/13 05:20:39;;;;;;;17.40;9.32;;;;;;;2.35;100.00;98952.44;4454521;32;20417;-69
2023/01/13 05:25:52;;;;;;;16.62;8.52;;;;;;;2.27;100.00;98966.63;4444466;32;20141;-69
2023/01/13 05:28:20;;;;;;;19.12;9.25;;;;;;;2.23;100.00;98959.94;4452682;32;20244;-69
2023/01/13 05:30:48;;;;;;;18.77;9.18;;;;;;;2.27;100.00;98970.94;4453010;32;20440;-69
2023/01/13 05:33:17;;;;;;;18.92;9.88;;;;;;;2.31;100.00;98972.47;4453047;32;20121;-69
2023/01/13 05:35:45;;;;;;;16.05;9.02;;;;;;;2.34;100.00;98974.06;4452193;32;20470;-69
2023/01/13 05:38:13;;;;;;;21.05;10.80;;;;;;;2.33;100.00;98965.44;4452333;32;20159;-69
2023/01/13 05:43:27;;;;;;;18.75;9.15;;;;;;;2.23;100.00;98966.88;4440071;32;20097;-69
2023/01/13 05:46:07;;;;;;;20.98;9.32;;;;;;;2.25;100.00;98965.03;4452110;32;20677;-69
2023/01/13 05:48:36;;;;;;;16.85;9.27;;;;;;;2.37;100.00;98963.56;4453437;32;20085;-69
2023/01/13 05:51:06;;;;;;;19.80;9.15;;;;;;;2.51;100.00;98968.00;4454110;32;20112;-69
2023/01/13 05:53:33;;;;;;;18.48;9.38;;;;;;;2.53;100.00;98963.56;4453744;32;20553;-69
2023/01/13 05:56:05;;;;;;;20.60;10.82;;;;;;;2.53;100.00;98969.59;4453574;32;20116;-69
2023/01/13 05:58:33;;;;;;;21.20;10.57;;;;;;;2.39;100.00;98962.56;4453552;32;20538;-69
2023/01/13 06:01:07;;;;;;;21.23;10.80;;;;;;;2.43;100.00;98961.47;4449649;32;20490;-69
2023/01/13 06:03:35;;;;;;;19.17;10.18;;;;;;;2.51;100.00;98961.06;4450708;32;20525;-68
2023/01/13 06:06:03;;;;;;;18.50;8.98;;;;;;;2.47;100.00;98952.66;4447922;32;20097;-67
2023/01/13 06:08:30;;;;;;;15.23;8.00;;;;;;;2.56;100.00;98950.47;4451288;32;20536;-68
2023/01/13 06:10:58;;;;;;;17.45;8.38;;;;;;;2.66;100.00;98959.41;4450988;32;20096;-68
2023/01/13 06:13:25;;;;;;;14.38;7.68;;;;;;;2.77;100.00;98956.25;4451712;32;20172;-68
2023/01/13 06:15:56;;;;;;;19.25;8.48;;;;;;;2.77;100.00;98956.25;4450691;32;20163;-68
2023/01/13 06:18:24;;;;;;;17.05;8.68;;;;;;;2.81;100.00;98957.75;4450948;32;20153;-68
2023/01/13 06:20:51;;;;;;;17.62;9.43;;;;;;;2.87;100.00;98964.34;4450684;32;20100;-68
2023/01/13 06:23:18;;;;;;;14.85;8.00;;;;;;;2.84;100.00;98961.00;4448888;32;20512;-68
2023/01/13 06:26:19;;;;;;;18.77;9.50;;;;;;;2.75;100.00;98956.31;4450537;32;20605;-68
2023/01/13 06:28:48;;;;;;;17.27;8.57;;;;;;;2.55;100.00;98967.75;4441240;32;20081;-68
2023/01/13 06:31:16;;;;;;;19.15;9.40;;;;;;;2.61;100.00;98961.41;4449849;32;20097;-69
2023/01/13 06:33:56;;;;;;;21.40;10.23;;;;;;;2.72;100.00;98963.44;4449927;32;20470;-69
2023/01/13 06:36:31;;;;;;;24.35;10.95;;;;;;;2.58;100.00;98954.66;4448324;32;20144;-68
2023/01/13 06:38:58;;;;;;;;;;;;;;;2.65;100.00;98961.19;4446594;32;20085;-67
2023/01/13 06:44:12;;;;;;;16.48;10.00;;;;;;;2.71;100.00;98969.50;4451081;32;20124;-68
2023/01/13 06:46:40;;;;;;;22.48;11.63;;;;;;;2.77;100.00;98959.69;4437130;32;20093;-69
2023/01/13 06:49:07;;;;;;;28.23;12.90;;;;;;;2.78;100.00;98970.84;4452432;32;20139;-68
2023/01/13 06:51:34;;;;;;;38.35;14.87;;;;;;;2.77;100.00;98974.34;4451974;32;20164;-69
2023/01/13 06:54:02;;;;;;;46.50;14.63;;;;;;;2.62;100.00;98976.84;4449902;32;20226;-69
2023/01/13 06:56:29;;;;;;;107.97;16.52;;;;;;;2.55;100.00;98977.28;4451067;32;20092;-69
2023/01/13 06:58:57;;;;;;;105.03;16.45;;;;;;;2.51;100.00;98986.09;4452937;32;20089;-68
2023/01/13 07:01:27;;;;;;;127.40;16.27;;;;;;;2.46;100.00;98981.16;4448836;32;20098;-70
2023/01/13 07:03:55;;;;;;;91.57;13.95;;;;;;;2.39;100.00;98991.00;4447303;32;20122;-70
2023/01/13 07:06:22;;;;;;;84.87;16.80;;;;;;;2.53;100.00;98986.84;4452126;32;20097;-69
2023/01/13 07:08:49;;;;;;;129.43;15.80;;;;;;;2.57;100.00;98986.59;4446543;32;20105;-69
2023/01/13 07:11:16;;;;;;;72.20;12.98;;;;;;;2.55;100.00;98993.59;4450442;32;20117;-70
2023/01/13 07:16:29;;;;;;;83.57;16.50;;;;;;;2.52;100.00;98990.38;4449345;32;20136;-70
2023/01/13 07:18:56;;;;;;;69.68;16.17;;;;;;;2.71;100.00;98985.88;4450342;32;20112;-69
2023/01/13 07:21:23;;;;;;;82.88;15.25;;;;;;;2.59;100.00;98977.03;4448244;32;20526;-70
2023/01/13 07:23:50;;;;;;;39.28;12.50;;;;;;;2.66;100.00;98972.34;4450215;32;20105;-69
2023/01/13 07:26:17;;;;;;;34.70;13.73;;;;;;;2.81;100.00;98976.69;4449570;32;20148;-70
2023/01/13 07:28:44;;;;;;;27.95;12.37;;;;;;;2.91;100.00;98984.81;4451067;32;20149;-70
2023/01/13 07:31:17;;;;;;;31.50;13.65;;;;;;;2.97;100.00;98978.47;4446713;32;20120;-70
2023/01/13 07:33:44;;;;;;;34.42;14.02;;;;;;;3.14;100.00;98983.53;4445501;32;20119;-69
2023/01/13 07:36:13;;;;;;;26.30;13.50;;;;;;;3.30;100.00;98980.09;4448333;32;20458;-69
2023/01/13 07:38:40;;;;;;;27.95;13.93;;;;;;;3.37;100.00;98977.06;4449439;32;20479;-69
2023/01/13 07:43:57;;;;;;;25.90;13.23;;;;;;;3.36;100.00;98993.53;4431928;32;21015;-70
2023/01/13 07:46:31;;;;;;;;;;;;;;;3.55;100.00;98995.09;4450079;32;20101;-69
2023/01/13 07:49:00;;;;;;;23.17;9.93;;;;;;;3.46;100.00;98983.50;4447703;32;20077;-69
2023/01/13 07:51:27;;;;;;;30.37;13.27;;;;;;;3.58;100.00;98978.56;4448221;32;20109;-71
2023/01/13 07:53:54;;;;;;;36.17;15.43;;;;;;;3.61;100.00;98999.91;4449390;32;20176;-70
2023/01/13 07:56:21;;;;;;;34.45;15.52;;;;;;;3.84;100.00;98996.00;4446874;32;20135;-70
2023/01/13 07:58:49;;;;;;;29.15;13.98;;;;;;;3.92;100.00;98998.12;4447011;32;20108;-69
2023/01/13 08:01:17;;;;;;;25.88;13.55;;;;;;;3.97;100.00;99000.50;4442959;32;20112;-71
2023/01/13 08:03:45;;;;;;;31.95;14.75;;;;;;;3.87;100.00;99005.38;4443754;32;20115;-68
2023/01/13 08:06:13;;;;;;;35.72;16.90;;;;;;;4.01;100.00;99005.41;4448204;32;20085;-69
2023/01/13 08:08:40;;;;;;;27.33;14.10;;;;;;;4.08;100.00;99003.28;4450392;32;20110;-66
2023/01/13 08:11:08;;;;;;;29.83;14.63;;;;;;;3.96;100.00;99011.78;4449578;32;20156;-68
2023/01/13 08:13:36;;;;;;;26.80;14.00;;;;;;;3.82;100.00;99010.00;4449773;32;20139;-69
2023/01/13 08:16:05;;;;;;;30.23;13.30;;;;;;;3.72;100.00;99013.13;4442986;32;20100;-69
2023/01/13 08:18:35;;;;;;;28.98;14.45;;;;;;;3.89;100.00;99012.13;4447137;32;20123;-69
2023/01/13 08:21:05;;;;;;;24.10;12.60;;;;;;;3.89;100.00;99011.28;4449468;32;21054;-70
2023/01/13 08:23:32;;;;;;;29.05;12.65;;;;;;;3.97;100.00;99014.28;4429642;32;20176;-70
2023/01/13 08:26:01;;;;;;;21.55;9.82;;;;;;;3.83;100.00;99016.81;4451140;32;20115;-69
2023/01/13 08:28:30;;;;;;;22.25;12.10;;;;;;;3.54;100.00;99017.56;4442302;32;20089;-70
2023/01/13 08:31:04;;;;;;;25.75;11.82;;;;;;;3.44;100.00;99024.19;4446622;32;20167;-68
2023/01/13 08:33:33;;;;;;;22.58;11.57;;;;;;;3.46;100.00;99024.09;4449904;32;20160;-69
2023/01/13 08:46:43;;;;;;;29.48;14.10;;;;;;;3.37;100.00;99038.38;4495144;31;214613;-70
2023/01/13 08:49:11;;;;;;;37.70;15.32;;;;;;;3.37;100.00;99038.38;4498172;31;20167;-70
2023/01/13 08:51:38;;;;;;;31.85;13.82;;;;;;;2.82;100.00;99048.22;4487367;31;20240;-70
2023/01/13 08:54:05;;;;;;;29.02;14.77;;;;;;;2.63;100.00;99055.28;4492542;31;20104;-70
2023/01/13 08:56:33;;;;;;;35.28;15.13;;;;;;;2.48;100.00;99057.75;4493803;31;20167;-68
2023/01/13 08:59:01;;;;;;;30.45;13.13;;;;;;;2.57;100.00;99064.19;4496062;31;20118;-68
2023/01/13 09:01:29;;;;;;;23.10;12.63;;;;;;;2.64;100.00;99047.44;4487251;31;20573;-69
2023/01/13 09:03:56;;;;;;;30.05;14.55;;;;;;;2.72;100.00;99048.78;4491858;31;20167;-69
2023/01/13 09:06:23;;;;;;;24.98;13.62;;;;;;;2.83;100.00;99057.66;4483222;31;20096;-70
2023/01/13 09:08:50;;;;;;;31.02;14.00;;;;;;;2.89;100.00;99066.00;4501449;31;20509;-71
2023/01/13 09:14:06;;;;;;;46.47;17.17;;;;;;;3.19;100.00;99050.59;4490382;31;20108;-72
2023/01/13 09:16:33;;;;;;;34.00;16.40;;;;;;;3.26;100.00;99044.16;4493462;31;20096;-71
2023/01/13 09:19:03;;;;;;;24.67;12.32;;;;;;;3.20;100.00;99041.91;4486880;31;20092;-71
2023/01/13 09:21:30;;;;;;;28.35;12.63;;;;;;;3.30;100.00;99032.72;4490665;31;20435;-71
2023/01/13 09:23:57;;;;;;;29.30;12.32;;;;;;;3.36;100.00;99042.75;4482092;31;20114;-70
2023/01/13 09:26:24;;;;;;;29.83;14.52;;;;;;;3.46;100.00;99042.22;4490145;31;22143;-73
2023/01/13 09:28:51;;;;;;;34.72;14.80;;;;;;;3.37;100.00;99041.81;4483826;31;20112;-73
2023/01/13 09:31:19;;;;;;;34.90;14.95;;;;;;;3.47;100.00;99041.31;4490370;31;20599;-73
2023/01/13 09:36:33;;;;;;;26.92;13.80;;;;;;;3.57;100.00;99042.44;4490646;31;20157;-72
2023/01/13 09:39:00;;;;;;;25.70;12.98;;;;;;;3.85;100.00;99033.97;4484257;31;20095;-72
2023/01/13 09:44:21;;;;;;;26.73;14.90;;;;;;;3.81;100.00;99034.22;4481942;31;20139;-72
2023/01/13 09:46:52;;;;;;;30.80;14.75;;;;;;;3.58;100.00;99018.22;4481251;31;20115;-71
2023/01/13 09:49:25;;;;;;;35.60;15.15;;;;;;;3.45;100.00;99018.09;4485238;31;20185;-71
2023/01/13 09:52:10;;;;;;;34.38;17.02;;;;;;;3.65;100.00;99027.34;4479605;32;20476;-72
2023/01/13 09:55:05;;;;;;;30.45;14.40;;;;;;;3.55;100.00;99019.22;4480894;32;20790;-71
2023/01/13 09:57:36;;;;;;;35.50;14.85;;;;;;;3.60;100.00;99018.97;4464383;32;20155;-71
2023/01/13 10:00:11;;;;;;;31.92;15.65;;;;;;;3.77;100.00;99017.19;4470471;32;20152;-71
2023/01/13 10:02:44;;;;;;;37.50;17.50;;;;;;;3.96;100.00;99022.97;4471447;32;20108;-73
2023/01/13 10:05:33;;;;;;;36.85;16.92;;;;;;;3.95;100.00;99018.72;4479550;32;20093;-72
2023/01/13 10:08:05;;;;;;;33.17;14.75;;;;;;;3.99;100.00;99027.16;4469784;32;20156;-71
2023/01/13 10:10:45;;;;;;;28.95;15.15;;;;;;;3.90;100.00;99020.72;4473200;32;20118;-70
2023/01/13 10:13:25;;;;;;;33.17;15.27;;;;;;;4.12;100.00;99015.16;4472330;32;20517;-69
2023/01/13 10:16:01;;;;;;;26.77;13.93;;;;;;;4.04;100.00;99013.00;4468747;32;20080;-72
2023/01/13 10:18:36;;;;;;;33.70;15.38;;;;;;;4.28;100.00;99029.78;4479173;31;20192;-70
2023/01/13 10:21:21;;;;;;;41.45;16.10;;;;;;;4.46;100.00;99020.09;4474430;31;20605;-70
2023/01/13 10:23:56;;;;;;;35.60;16.42;;;;;;;4.14;100.00;99026.25;4482011;31;20092;-70
2023/01/13 10:26:23;;;;;;;33.92;16.85;;;;;;;4.29;100.00;99027.09;4474738;32;20088;-71
2023/01/13 10:28:53;;;;;;;34.85;16.02;;;;;;;4.66;100.00;99030.06;4472269;32;20383;-71
2023/01/13 10:31:21;;;;;;;51.97;22.87;;;;;;;4.65;100.00;99033.63;4473910;32;20089;-72
2023/01/13 10:33:57;;;;;;;37.63;16.67;;;;;;;4.49;100.00;99032.87;4474806;32;20100;-69
2023/01/13 10:36:24;;;;;;;43.55;17.35;;;;;;;4.44;100.00;99020.19;4479329;32;20152;-71
2023/01/13 10:38:53;;;;;;;39.45;17.48;;;;;;;4.51;100.00;99023.22;4475241;32;20149;-71
2023/01/13 10:41:25;;;;;;;50.35;21.42;;;;;;;4.43;100.00;99016.72;4469093;32;20109;-70
2023/01/13 10:44:03;;;;;;;45.30;18.15;;;;;;;4.56;100.00;99006.47;4470142;32;20454;-70
2023/01/13 10:46:35;;;;;;;65.50;23.87;;;;;;;4.46;100.00;99005.34;4479841;31;20112;-69
2023/01/13 10:49:18;;;;;;;53.92;20.92;;;;;;;4.30;100.00;99002.84;4472869;31;20128;-69
2023/01/13 10:51:46;;;;;;;101.22;40.58;;;;;;;4.18;100.00;98991.44;4480919;32;20829;-68
2023/01/13 10:54:21;;;;;;;105.28;40.65;;;;;;;4.19;100.00;98989.69;4471818;31;21060;-69
2023/01/13 10:57:18;;;;;;;79.32;22.25;;;;;;;3.87;100.00;98984.63;4478047;31;20089;-69
2023/01/13 10:59:47;;;;;;;84.75;17.58;;;;;;;3.73;100.00;98975.91;4481199;31;20932;-69
2023/01/13 11:02:29;;;;;;;103.30;19.10;;;;;;;3.60;100.00;98974.94;4487428;31;20160;-68
2023/01/13 11:05:21;;;;;;;61.00;17.12;;;;;;;3.66;100.00;98971.97;4476323;32;20927;-69
2023/01/13 11:07:51;;;;;;;53.80;16.55;;;;;;;3.67;100.00;98971.06;4479354;32;20092;-67
2023/01/13 11:10:26;;;;;;;95.12;16.55;;;;;;;3.57;100.00;98963.91;4478322;32;20555;-69
2023/01/13 11:13:18;;;;;;;68.68;15.73;;;;;;;3.52;100.00;98962.41;4470781;32;20092;-69
2023/01/13 11:15:49;;;;;;;44.08;15.18;;;;;;;3.61;100.00;98965.41;4476697;32;20151;-69
2023/01/13 11:18:21;;;;;;;76.20;17.17;;;;;;;3.65;100.00;98953.94;4477684;31;20144;-68
2023/01/13 11:20:49;;;;;;;63.35;17.10;;;;;;;3.63;100.00;98951.44;4475389;31;20197;-71
2023/01/13 11:23:20;;;;;;;55.85;19.23;;;;;;;3.62;100.00;98947.19;4469288;32;20394;-70
2023/01/13 11:25:52;;;;;;;69.47;21.48;;;;;;;3.59;100.00;98949.97;4471304;32;20521;-70
2023/01/13 11:28:25;;;;;;;86.35;20.08;;;;;;;3.73;100.00;98944.81;4468088;32;20084;-69
2023/01/13 11:30:56;;;;;;;77.83;19.90;;;;;;;3.44;100.00;98940.50;4471194;32;20835;-70
2023/01/13 11:33:29;;;;;;;55.67;19.10;;;;;;;3.40;100.00;98937.22;4470398;32;20167;-70
2023/01/13 11:36:07;;;;;;;65.55;23.05;;;;;;;3.43;100.00;98938.81;4472803;32;20415;-70
2023/01/13 11:38:54;;;;;;;66.10;28.27;;;;;;;3.58;100.00;98945.69;4471144;32;20104;-70
2023/01/13 11:42:19;;;;;;;60.25;18.40;;;;;;;3.53;100.00;98945.97;4467412;32;20123;-71
2023/01/13 11:44:44;;;;;;;58.00;21.10;;;;;;;3.49;100.00;98935.88;4468633;32;22215;-71
2023/01/13 11:47:12;;;;;;;43.90;18.02;;;;;;;3.47;100.00;98933.37;4472562;32;20158;-71
2023/01/13 11:49:40;;;;;;;38.88;17.67;;;;;;;3.58;100.00;98924.16;4476372;31;20084;-71
2023/01/13 11:52:43;;;;;;;53.35;23.08;;;;;;;3.56;100.00;98921.66;4475710;32;20450;-71
2023/01/13 11:55:17;;;;;;;42.13;19.35;;;;;;;3.71;100.00;98919.94;4474585;32;20085;-71
2023/01/13 11:58:31;;;;;;;46.53;21.40;;;;;;;3.54;100.00;98913.97;4475644;31;20092;-71
2023/01/13 12:01:24;;;;;;;40.22;17.85;;;;;;;3.71;100.00;98902.63;4447233;32;20122;-70
2023/01/13 12:04:05;;;;;;;43.83;19.00;;;;;;;3.58;100.00;98904.25;4442031;32;20116;-71
2023/01/13 12:06:35;;;;;;;38.65;16.67;;;;;;;3.51;100.00;98893.44;4446644;32;20514;-71
2023/01/13 12:09:23;;;;;;;63.35;22.95;;;;;;;3.53;100.00;98890.75;4433746;32;20112;-71
2023/01/13 12:15:28;;;;;;;49.60;19.87;;;;;;;3.66;100.00;98873.53;4410142;32;20534;-71
2023/01/13 12:18:23;;;;;;;43.75;18.05;;;;;;;3.63;100.00;98868.53;4413281;32;20172;-70
2023/01/13 12:21:03;;;;;;;45.60;19.27;;;;;;;3.64;100.00;98862.44;4413586;32;20530;-69
2023/01/13 12:23:46;;;;;;;42.05;17.48;;;;;;;3.55;100.00;98857.81;4415789;32;20184;-70
2023/01/13 12:26:15;;;;;;;46.15;19.67;;;;;;;3.52;100.00;98856.22;4403666;32;20139;-71
2023/01/13 12:29:02;;;;;;;58.85;25.40;;;;;;;3.53;100.00;98860.50;4414980;32;20596;-71
2023/01/13 12:31:30;;;;;;;68.90;27.45;;;;;;;3.72;100.00;98870.59;4404069;32;20193;-71
2023/01/13 12:34:18;;;;;;;90.75;38.33;;;;;;;3.76;100.00;98870.44;4405897;32;20213;-71
2023/01/13 12:37:13;;;;;;;121.90;44.78;;;;;;;3.91;100.00;98864.31;4424677;32;20163;-71